createdAt,value
2018-11-07T00:01:08.338Z,82.00
2018-11-07T00:03:41.194Z,82.80
2018-11-07T00:06:14.118Z,83.80
2018-11-07T00:08:46.894Z,84.20
2018-11-07T00:11:20.062Z,84.40
2018-11-07T00:13:53.056Z,84.40
2018-11-07T00:16:26.074Z,84.70
2018-11-07T00:18:59.109Z,84.70
2018-11-07T00:21:32.045Z,84.80
2018-11-07T00:24:05.203Z,84.30
2018-11-07T00:26:38.507Z,83.80
2018-11-07T00:29:11.490Z,84.10
2018-11-07T00:31:44.276Z,84.70
2018-11-07T00:34:17.048Z,84.00
2018-11-07T00:36:49.631Z,84.50
2018-11-07T00:39:22.831Z,85.20
2018-11-07T00:41:55.762Z,86.10
2018-11-07T00:44:28.781Z,86.50
2018-11-07T00:47:01.341Z,86.70
2018-11-07T00:49:34.236Z,86.60
2018-11-07T00:52:06.390Z,85.90
2018-11-07T00:54:39.439Z,86.30
2018-11-07T00:57:13.288Z,87.00
2018-11-07T00:59:45.948Z,85.90
2018-11-07T01:02:18.481Z,86.10
2018-11-07T01:04:51.607Z,86.20
2018-11-07T01:07:24.374Z,86.70
2018-11-07T01:09:57.184Z,85.70
2018-11-07T01:12:30.384Z,86.10
2018-11-07T01:15:02.642Z,86.50
2018-11-07T01:17:34.764Z,86.20
2018-11-07T01:20:08.195Z,86.10
2018-11-07T01:22:40.366Z,85.50
2018-11-07T01:25:12.728Z,85.90
2018-11-07T01:27:44.923Z,84.40
2018-11-07T01:30:17.210Z,84.90
2018-11-07T01:32:49.454Z,84.60
2018-11-07T01:35:21.682Z,85.00
2018-11-07T01:37:54.884Z,85.20
2018-11-07T01:40:27.186Z,84.80
2018-11-07T01:43:00.306Z,83.80
2018-11-07T01:45:32.591Z,83.20
2018-11-07T01:48:04.729Z,83.60
2018-11-07T01:50:37.027Z,83.30
2018-11-07T01:53:09.322Z,83.20
2018-11-07T01:55:41.591Z,82.60
2018-11-07T01:58:13.778Z,82.60
2018-11-07T02:00:46.033Z,82.40
2018-11-07T02:03:18.283Z,82.20
2018-11-07T02:05:50.728Z,82.20
2018-11-07T02:08:23.297Z,82.70
2018-11-07T02:10:55.532Z,82.50
2018-11-07T02:13:27.700Z,82.80
2018-11-07T02:16:00.103Z,82.70
2018-11-07T02:18:32.255Z,83.50
2018-11-07T02:21:04.683Z,84.40
2018-11-07T02:23:37.348Z,84.60
2018-11-07T02:26:10.883Z,84.70
2018-11-07T02:28:43.143Z,84.90
2018-11-07T02:31:15.416Z,85.20
2018-11-07T02:33:47.647Z,85.80
2018-11-07T02:36:19.952Z,86.70
2018-11-07T02:38:52.173Z,87.40
2018-11-07T02:41:24.441Z,87.90
2018-11-07T02:43:56.611Z,88.50
2018-11-07T02:46:28.998Z,89.00
2018-11-07T02:49:01.182Z,89.60
2018-11-07T02:51:34.570Z,90.10
2018-11-07T02:54:06.880Z,90.50
2018-11-07T02:56:39.176Z,90.80
2018-11-07T02:59:11.425Z,91.00
2018-11-07T03:01:44.178Z,91.30
2018-11-07T03:04:16.903Z,91.70
2018-11-07T03:06:49.644Z,92.50
2018-11-07T03:09:23.508Z,92.40
2018-11-07T03:11:56.404Z,92.60
2018-11-07T03:14:28.540Z,92.70
2018-11-07T03:17:00.821Z,93.00
2018-11-07T03:19:32.988Z,93.20
2018-11-07T03:22:05.196Z,93.30
2018-11-07T03:24:37.403Z,93.40
2018-11-07T03:27:10.526Z,93.70
2018-11-07T03:29:42.694Z,93.80
2018-11-07T03:32:14.876Z,93.90
2018-11-07T03:34:47.625Z,94.00
2018-11-07T03:37:19.917Z,94.20
2018-11-07T03:39:52.229Z,94.50
2018-11-07T03:42:24.475Z,94.90
2018-11-07T03:44:56.631Z,95.20
2018-11-07T03:47:30.059Z,95.20
2018-11-07T03:50:02.653Z,95.60
2018-11-07T03:52:35.356Z,95.90
2018-11-07T03:55:08.535Z,96.20
2018-11-07T03:57:41.390Z,96.60
2018-11-07T04:00:13.935Z,96.80
2018-11-07T04:02:46.685Z,97.20
2018-11-07T04:05:19.359Z,97.30
2018-11-07T04:07:52.657Z,97.50
2018-11-07T04:10:24.794Z,97.70
2018-11-07T04:12:57.083Z,97.90
2018-11-07T04:15:29.337Z,98.00
2018-11-07T04:18:01.705Z,98.00
2018-11-07T04:20:34.058Z,98.10
2018-11-07T04:23:06.772Z,98.40
2018-11-07T04:25:46.985Z,98.60
2018-11-07T04:28:19.688Z,98.90
2018-11-07T04:30:52.755Z,98.90
2018-11-07T04:33:25.673Z,98.90
2018-11-07T04:35:58.521Z,99.10
2018-11-07T04:38:31.333Z,99.10
2018-11-07T04:41:03.488Z,98.90
2018-11-07T04:43:35.691Z,98.90
2018-11-07T04:46:08.578Z,99.00
2018-11-07T04:48:41.922Z,99.00
2018-11-07T04:51:15.041Z,99.30
2018-11-07T04:53:47.327Z,99.60
2018-11-07T04:56:19.540Z,99.80
2018-11-07T04:58:51.753Z,99.90
2018-11-07T05:01:24.074Z,99.90
2018-11-07T05:03:56.631Z,99.90
2018-11-07T05:06:29.227Z,99.90
2018-11-07T05:09:02.137Z,99.90
2018-11-07T05:11:35.244Z,99.90
2018-11-07T05:14:08.193Z,99.90
2018-11-07T05:16:41.111Z,99.90
2018-11-07T05:19:14.162Z,99.90
2018-11-07T05:21:46.765Z,99.90
2018-11-07T05:24:19.924Z,99.90
2018-11-07T05:26:52.827Z,99.90
2018-11-07T05:29:25.043Z,99.90
2018-11-07T05:31:57.213Z,99.90
2018-11-07T05:34:29.468Z,99.90
2018-11-07T05:37:01.685Z,99.90
2018-11-07T05:39:33.894Z,99.90
2018-11-07T05:42:06.336Z,99.90
2018-11-07T05:44:38.715Z,99.90
2018-11-07T05:47:10.934Z,99.90
2018-11-07T05:49:43.339Z,99.90
2018-11-07T05:52:16.693Z,99.90
2018-11-07T05:54:50.020Z,99.90
2018-11-07T05:57:23.188Z,99.90
2018-11-07T05:59:56.203Z,99.90
2018-11-07T06:02:29.350Z,99.90
2018-11-07T06:05:02.351Z,99.90
2018-11-07T06:07:34.986Z,99.90
2018-11-07T06:10:08.945Z,99.90
2018-11-07T06:12:41.772Z,99.90
2018-11-07T06:15:14.703Z,99.90
2018-11-07T06:17:47.497Z,99.90
2018-11-07T06:20:20.359Z,99.90
2018-11-07T06:22:52.904Z,99.90
2018-11-07T06:25:25.741Z,99.90
2018-11-07T06:27:58.222Z,99.90
2018-11-07T06:30:31.230Z,99.90
2018-11-07T06:33:04.051Z,99.90
2018-11-07T06:35:36.665Z,99.90
2018-11-07T06:38:09.490Z,99.90
2018-11-07T06:40:43.055Z,99.90
2018-11-07T06:43:16.096Z,99.90
2018-11-07T06:45:49.064Z,99.90
2018-11-07T06:48:22.072Z,99.90
2018-11-07T06:50:55.013Z,99.90
2018-11-07T06:53:27.954Z,99.90
2018-11-07T06:56:00.280Z,99.90
2018-11-07T06:58:32.495Z,99.90
2018-11-07T07:01:04.751Z,99.90
2018-11-07T07:03:36.931Z,99.90
2018-11-07T07:06:09.225Z,99.90
2018-11-07T07:08:41.426Z,99.90
2018-11-07T07:11:13.915Z,99.90
2018-11-07T07:13:46.081Z,99.90
2018-11-07T07:16:19.006Z,99.90
2018-11-07T07:18:51.579Z,99.90
2018-11-07T07:21:24.377Z,99.90
2018-11-07T07:23:57.327Z,99.90
2018-11-07T07:26:30.213Z,99.90
2018-11-07T07:29:02.905Z,99.90
2018-11-07T07:31:37.700Z,99.90
2018-11-07T07:34:10.474Z,99.90
2018-11-07T07:36:42.778Z,99.90
2018-11-07T07:39:14.958Z,99.90
2018-11-07T07:41:47.270Z,99.90
2018-11-07T07:44:19.452Z,99.90
2018-11-07T07:46:52.403Z,99.90
2018-11-07T07:49:25.221Z,99.90
2018-11-07T07:51:58.367Z,99.90
2018-11-07T07:54:31.536Z,99.90
2018-11-07T07:57:04.343Z,99.90
2018-11-07T07:59:37.174Z,99.90
2018-11-07T08:02:09.946Z,99.90
2018-11-07T08:04:42.597Z,99.90
2018-11-07T08:07:15.238Z,99.90
2018-11-07T08:09:47.963Z,99.90
2018-11-07T08:12:20.917Z,99.90
2018-11-07T08:14:53.734Z,99.90
2018-11-07T08:17:26.801Z,99.90
2018-11-07T08:19:59.526Z,99.90
2018-11-07T08:22:32.298Z,99.90
2018-11-07T08:25:04.873Z,99.90
2018-11-07T08:27:37.215Z,99.90
2018-11-07T08:30:13.147Z,99.90
2018-11-07T08:32:46.254Z,99.90
2018-11-07T08:35:18.907Z,99.90
2018-11-07T08:37:52.043Z,99.90
2018-11-07T08:40:25.629Z,99.90
2018-11-07T08:42:58.344Z,99.90
2018-11-07T08:45:31.132Z,99.90
2018-11-07T08:48:03.508Z,99.90
2018-11-07T08:50:35.743Z,99.90
2018-11-07T08:53:08.778Z,99.90
2018-11-07T08:55:41.574Z,99.90
2018-11-07T08:58:14.703Z,99.90
2018-11-07T09:00:47.391Z,99.90
2018-11-07T09:03:20.212Z,99.90
2018-11-07T09:05:52.960Z,99.90
2018-11-07T09:08:25.806Z,99.90
2018-11-07T09:10:58.622Z,99.90
2018-11-07T09:13:31.805Z,99.90
2018-11-07T09:16:04.329Z,99.90
2018-11-07T09:18:37.107Z,99.90
2018-11-07T09:21:09.813Z,99.90
2018-11-07T09:23:42.087Z,99.90
2018-11-07T09:26:14.216Z,99.90
2018-11-07T09:28:46.503Z,99.90
2018-11-07T09:31:19.186Z,99.90
2018-11-07T09:33:52.618Z,99.90
2018-11-07T09:36:25.390Z,99.90
2018-11-07T09:38:57.638Z,99.90
2018-11-07T09:41:29.823Z,99.90
2018-11-07T09:44:02.037Z,99.90
2018-11-07T09:46:34.929Z,99.90
2018-11-07T09:49:07.897Z,99.90
2018-11-07T09:51:40.723Z,99.90
2018-11-07T09:54:13.158Z,99.90
2018-11-07T09:56:45.911Z,99.90
2018-11-07T09:59:18.967Z,99.90
2018-11-07T10:01:51.565Z,99.90
2018-11-07T10:04:24.763Z,99.90
2018-11-07T10:06:57.923Z,99.90
2018-11-07T10:09:30.704Z,99.90
2018-11-07T10:12:03.364Z,99.90
2018-11-07T10:14:36.302Z,99.90
2018-11-07T10:17:08.884Z,99.90
2018-11-07T10:19:41.901Z,99.90
2018-11-07T10:22:14.834Z,99.90
2018-11-07T10:24:47.824Z,99.90
2018-11-07T10:27:20.996Z,99.90
2018-11-07T10:29:54.721Z,99.90
2018-11-07T10:32:27.953Z,99.90
2018-11-07T10:35:00.956Z,99.90
2018-11-07T10:37:33.182Z,99.90
2018-11-07T10:40:05.811Z,99.90
2018-11-07T10:42:38.080Z,99.90
2018-11-07T10:45:12.185Z,99.90
2018-11-07T10:47:46.255Z,99.90
2018-11-07T10:50:20.175Z,99.90
2018-11-07T10:52:53.140Z,99.90
2018-11-07T10:55:26.330Z,99.90
2018-11-07T10:57:59.160Z,99.90
2018-11-07T11:00:36.495Z,99.90
2018-11-07T11:03:13.620Z,99.90
2018-11-07T11:05:46.483Z,99.90
2018-11-07T11:08:19.037Z,99.90
2018-11-07T11:10:51.779Z,99.90
2018-11-07T11:13:24.729Z,99.90
2018-11-07T11:15:57.831Z,99.90
2018-11-07T11:18:32.832Z,99.90
2018-11-07T11:21:05.199Z,99.90
2018-11-07T11:23:37.399Z,99.90
2018-11-07T11:26:10.047Z,99.90
2018-11-07T11:28:42.197Z,99.90
2018-11-07T11:31:14.484Z,99.90
2018-11-07T11:33:46.737Z,99.90
2018-11-07T11:36:19.318Z,99.90
2018-11-07T11:38:51.443Z,99.90
2018-11-07T11:41:23.774Z,99.90
2018-11-07T11:43:56.468Z,99.90
2018-11-07T11:46:28.678Z,99.90
2018-11-07T11:49:01.024Z,99.90
2018-11-07T11:51:33.487Z,99.90
2018-11-07T11:54:05.596Z,99.90
2018-11-07T11:56:38.074Z,99.90
2018-11-07T11:59:10.295Z,99.90
2018-11-07T12:01:42.600Z,99.90
2018-11-07T12:04:15.690Z,99.90
2018-11-07T12:06:48.595Z,99.90
2018-11-07T12:09:21.450Z,99.90
2018-11-07T12:11:54.591Z,99.90
2018-11-07T12:14:27.586Z,99.90
2018-11-07T12:17:00.109Z,99.90
2018-11-07T12:19:32.262Z,99.90
2018-11-07T12:22:04.566Z,99.90
2018-11-07T12:24:36.709Z,99.90
2018-11-07T12:27:09.116Z,99.90
2018-11-07T12:29:41.345Z,99.90
2018-11-07T12:32:13.598Z,99.90
2018-11-07T12:34:45.775Z,99.90
2018-11-07T12:37:18.402Z,99.90
2018-11-07T12:39:50.610Z,99.90
2018-11-07T12:42:23.641Z,99.90
2018-11-07T12:44:56.465Z,99.90
2018-11-07T12:47:29.343Z,99.90
2018-11-07T12:50:02.502Z,99.90
2018-11-07T12:52:35.476Z,99.90
2018-11-07T12:55:08.965Z,99.90
2018-11-07T12:57:41.938Z,99.90
2018-11-07T13:00:21.038Z,99.90
2018-11-07T13:02:53.951Z,99.90
2018-11-07T13:05:27.921Z,99.90
2018-11-07T13:08:01.071Z,99.90
2018-11-07T13:10:33.880Z,99.90
2018-11-07T13:13:06.903Z,99.90
2018-11-07T13:15:39.029Z,99.90
2018-11-07T13:18:11.372Z,99.90
2018-11-07T13:20:43.724Z,99.90
2018-11-07T13:23:16.689Z,99.90
2018-11-07T13:25:49.777Z,99.90
2018-11-07T13:28:22.671Z,99.90
2018-11-07T13:30:55.658Z,99.90
2018-11-07T13:33:27.915Z,99.90
2018-11-07T13:36:00.965Z,99.90
2018-11-07T13:38:33.649Z,99.90
2018-11-07T13:41:06.100Z,99.90
2018-11-07T13:43:38.476Z,99.90
2018-11-07T13:46:10.800Z,99.90
2018-11-07T13:48:43.419Z,99.90
2018-11-07T13:51:15.603Z,99.90
2018-11-07T13:53:47.959Z,99.90
2018-11-07T13:56:20.357Z,99.90
2018-11-07T13:58:53.042Z,99.90
2018-11-07T14:01:25.395Z,99.90
2018-11-07T14:06:48.746Z,99.90
2018-11-07T14:09:21.041Z,99.90
2018-11-07T14:11:53.650Z,99.90
2018-11-07T14:14:26.060Z,99.90
2018-11-07T14:16:58.579Z,99.90
2018-11-07T14:19:31.122Z,99.90
2018-11-07T14:22:03.440Z,99.90
2018-11-07T14:24:35.876Z,99.90
2018-11-07T14:27:08.451Z,99.90
2018-11-07T14:29:41.057Z,99.90
2018-11-07T14:32:15.329Z,99.90
2018-11-07T14:34:49.501Z,99.90
2018-11-07T14:37:22.990Z,99.90
2018-11-07T14:39:55.275Z,99.90
2018-11-07T14:42:30.819Z,99.90
2018-11-07T14:45:04.127Z,99.90
2018-11-07T14:47:36.594Z,99.90
2018-11-07T14:50:11.498Z,99.90
2018-11-07T14:52:44.528Z,99.90
2018-11-07T14:55:16.700Z,99.90
2018-11-07T14:57:49.289Z,99.90
2018-11-07T15:00:22.863Z,99.90
2018-11-07T15:02:55.498Z,99.90
2018-11-07T15:05:28.963Z,99.90
2018-11-07T15:08:01.982Z,99.90
2018-11-07T15:10:34.391Z,99.90
2018-11-07T15:13:06.708Z,99.90
2018-11-07T15:15:39.011Z,99.90
2018-11-07T15:18:11.506Z,99.90
2018-11-07T15:20:44.874Z,99.90
2018-11-07T15:23:17.268Z,99.90
2018-11-07T15:25:49.756Z,99.90
2018-11-07T15:28:22.392Z,99.70
2018-11-07T15:30:54.690Z,98.20
2018-11-07T15:33:27.015Z,97.70
2018-11-07T15:35:59.297Z,95.40
2018-11-07T15:38:32.511Z,93.60
2018-11-07T15:41:04.797Z,92.80
2018-11-07T15:43:37.435Z,92.30
2018-11-07T15:46:09.725Z,90.70
2018-11-07T15:48:42.075Z,89.20
2018-11-07T15:51:18.167Z,88.60
2018-11-07T15:53:52.053Z,86.40
2018-11-07T15:56:24.451Z,85.60
2018-11-07T15:58:57.771Z,84.70
2018-11-07T16:01:30.327Z,86.00
2018-11-07T16:04:03.508Z,85.70
2018-11-07T16:06:35.936Z,84.00
2018-11-07T16:09:10.829Z,82.50
2018-11-07T16:11:43.076Z,83.10
2018-11-07T16:14:15.646Z,80.60
2018-11-07T16:16:47.925Z,79.50
2018-11-07T16:19:21.492Z,78.90
2018-11-07T16:21:53.997Z,75.60
2018-11-07T16:24:26.554Z,74.40
2018-11-07T16:26:58.860Z,73.80
2018-11-07T16:29:31.622Z,77.20
2018-11-07T16:32:03.943Z,78.30
2018-11-07T16:34:36.418Z,77.00
2018-11-07T16:37:08.756Z,77.60
2018-11-07T16:39:43.055Z,75.10
2018-11-07T16:42:16.966Z,73.50
2018-11-07T16:44:50.265Z,73.30
2018-11-07T16:47:22.649Z,75.40
2018-11-07T16:49:55.113Z,73.20
2018-11-07T16:52:27.433Z,73.10
2018-11-07T16:54:59.911Z,72.70
2018-11-07T16:57:36.325Z,71.60
2018-11-07T17:00:13.047Z,70.50
2018-11-07T17:02:46.208Z,70.00
2018-11-07T17:05:19.214Z,71.20
2018-11-07T17:07:52.302Z,70.80
2018-11-07T17:10:25.215Z,72.40
2018-11-07T17:12:57.893Z,73.60
2018-11-07T17:15:30.739Z,74.30
2018-11-07T17:18:03.696Z,74.90
2018-11-07T17:20:36.778Z,74.50
2018-11-07T17:23:10.549Z,74.20
2018-11-07T17:25:43.639Z,73.70
2018-11-07T17:28:15.983Z,72.30
2018-11-07T17:30:48.597Z,72.70
2018-11-07T17:33:21.494Z,71.30
2018-11-07T17:35:54.347Z,72.30
2018-11-07T17:38:26.618Z,70.20
2018-11-07T17:40:59.699Z,70.00
2018-11-07T17:43:32.345Z,70.70
2018-11-07T17:46:05.197Z,71.20
2018-11-07T17:48:37.794Z,69.60
2018-11-07T17:51:10.301Z,67.40
2018-11-07T17:53:43.131Z,69.00
2018-11-07T17:56:15.930Z,68.00
2018-11-07T17:58:48.897Z,69.00
2018-11-07T18:01:21.955Z,69.40
2018-11-07T18:03:54.426Z,68.20
2018-11-07T18:06:26.926Z,67.50
2018-11-07T18:08:59.535Z,66.20
2018-11-07T18:11:32.805Z,65.50
2018-11-07T18:14:05.908Z,65.90
2018-11-07T18:16:38.570Z,66.70
2018-11-07T18:19:11.614Z,68.00
2018-11-07T18:21:45.600Z,67.60
2018-11-07T18:24:18.772Z,71.10
2018-11-07T18:26:51.628Z,70.40
2018-11-07T18:29:23.967Z,70.90
2018-11-07T18:31:56.685Z,71.20
2018-11-07T18:34:29.343Z,71.20
2018-11-07T18:37:01.668Z,70.50
2018-11-07T18:39:34.721Z,69.40
2018-11-07T18:42:07.103Z,68.30
2018-11-07T18:44:42.205Z,68.10
2018-11-07T18:47:15.562Z,67.70
2018-11-07T18:49:49.087Z,66.60
2018-11-07T18:52:22.013Z,67.60
2018-11-07T18:54:54.780Z,66.40
2018-11-07T18:57:28.595Z,65.40
2018-11-07T19:00:01.100Z,65.70
2018-11-07T19:02:34.673Z,66.10
2018-11-07T19:05:07.873Z,66.00
2018-11-07T19:07:40.663Z,66.00
2018-11-07T19:10:16.494Z,65.40
2018-11-07T19:12:49.440Z,66.30
2018-11-07T19:15:23.515Z,68.40
2018-11-07T19:17:56.480Z,71.20
2018-11-07T19:20:28.700Z,71.50
2018-11-07T19:23:01.529Z,68.40
2018-11-07T19:25:34.502Z,68.40
2018-11-07T19:28:07.320Z,67.60
2018-11-07T19:30:40.046Z,69.20
2018-11-07T19:33:13.305Z,69.90
2018-11-07T19:35:46.429Z,68.90
2018-11-07T19:38:18.746Z,68.00
2018-11-07T19:40:51.946Z,68.20
2018-11-07T19:43:24.316Z,69.30
2018-11-07T19:45:56.792Z,68.50
2018-11-07T19:48:29.059Z,68.00
2018-11-07T19:51:01.421Z,68.30
2018-11-07T19:53:33.808Z,68.60
2018-11-07T19:56:06.870Z,67.70
2018-11-07T19:58:39.498Z,67.30
2018-11-07T20:01:12.640Z,68.30
2018-11-07T20:03:45.918Z,69.80
2018-11-07T20:06:18.534Z,68.40
2018-11-07T20:08:51.425Z,71.00
2018-11-07T20:11:24.035Z,72.30
2018-11-07T20:13:59.322Z,72.50
2018-11-07T20:16:34.283Z,73.80
2018-11-07T20:19:07.825Z,74.10
2018-11-07T20:21:40.718Z,75.20
2018-11-07T20:24:13.716Z,74.40
2018-11-07T20:26:46.876Z,75.80
2018-11-07T20:29:19.531Z,74.70
2018-11-07T20:31:53.991Z,74.90
2018-11-07T20:34:27.333Z,74.10
2018-11-07T20:37:00.448Z,74.60
2018-11-07T20:39:33.900Z,71.10
2018-11-07T20:42:07.754Z,71.50
2018-11-07T20:44:40.826Z,72.30
2018-11-07T20:47:13.569Z,73.70
2018-11-07T20:49:45.921Z,75.90
2018-11-07T20:52:18.211Z,77.20
2018-11-07T20:54:50.609Z,76.00
2018-11-07T20:57:23.056Z,74.80
2018-11-07T20:59:57.890Z,75.50
2018-11-07T21:02:32.660Z,75.60
2018-11-07T21:05:07.623Z,76.90
2018-11-07T21:07:40.822Z,76.80
2018-11-07T21:10:18.540Z,78.50
2018-11-07T21:12:52.471Z,79.80
2018-11-07T21:15:25.491Z,80.20
2018-11-07T21:17:59.448Z,79.00
2018-11-07T21:20:33.185Z,77.90
2018-11-07T21:23:05.476Z,77.40
2018-11-07T21:25:38.289Z,77.70
2018-11-07T21:28:11.155Z,78.20
2018-11-07T21:30:44.413Z,77.70
2018-11-07T21:33:17.086Z,77.60
2018-11-07T21:35:49.396Z,78.20
2018-11-07T21:38:22.252Z,79.30
2018-11-07T21:40:54.848Z,80.00
2018-11-07T21:43:27.416Z,80.60
2018-11-07T21:46:00.603Z,80.20
2018-11-07T21:48:33.403Z,79.60
2018-11-07T21:51:06.374Z,80.40
2018-11-07T21:53:39.125Z,79.40
2018-11-07T21:56:11.931Z,79.40
2018-11-07T21:58:44.032Z,78.60
2018-11-07T22:01:17.067Z,78.80
2018-11-07T22:03:49.950Z,80.10
2018-11-07T22:06:22.558Z,80.80
2018-11-07T22:08:55.445Z,81.20
2018-11-07T22:14:08.699Z,81.60
2018-11-07T22:16:41.066Z,81.70
2018-11-07T22:19:13.461Z,81.60
2018-11-07T22:21:46.478Z,81.00
2018-11-07T22:24:19.905Z,82.80
2018-11-07T22:26:52.373Z,81.80
2018-11-07T22:29:25.466Z,81.30
2018-11-07T22:31:58.960Z,81.20
2018-11-07T22:34:31.863Z,80.80
2018-11-07T22:37:04.647Z,81.30
2018-11-07T22:39:37.386Z,80.50
2018-11-07T22:42:11.139Z,80.50
2018-11-07T22:44:43.853Z,81.70
2018-11-07T22:47:16.198Z,81.70
2018-11-07T22:49:48.610Z,81.90
2018-11-07T22:52:21.204Z,83.10
2018-11-07T22:54:54.013Z,84.50
2018-11-07T22:57:26.563Z,84.70
2018-11-07T22:59:59.684Z,84.00
2018-11-07T23:02:34.157Z,84.30
2018-11-07T23:05:07.603Z,85.40
2018-11-07T23:07:41.679Z,86.10
2018-11-07T23:10:14.988Z,86.50
2018-11-07T23:12:49.286Z,87.50
2018-11-07T23:15:26.146Z,87.30
2018-11-07T23:17:58.597Z,87.50
2018-11-07T23:20:30.930Z,87.70
2018-11-07T23:23:03.893Z,88.80
2018-11-07T23:28:17.372Z,90.00
2018-11-07T23:30:50.203Z,89.40
2018-11-07T23:33:22.874Z,90.00
2018-11-07T23:35:55.674Z,90.10
2018-11-07T23:38:28.475Z,90.30
2018-11-07T23:41:01.306Z,90.50
2018-11-07T23:43:34.540Z,90.70
2018-11-07T23:46:08.008Z,91.00
2018-11-07T23:48:46.743Z,91.20
2018-11-07T23:51:19.401Z,91.40
2018-11-07T23:53:56.532Z,91.10
2018-11-07T23:56:29.428Z,91.50
2018-11-07T23:59:02.332Z,91.30
